sensor_id;sensor_type;location;lat;lon;timestamp;pressure;altitude;pressure_sealevel;temperature;humidity
12636;BME280;6383;50.830;7.210;2022-07-22T21:32:05;100977.66;;;20.53;79.30
12636;BME280;6383;50.830;7.210;2022-07-22T21:34:33;100980.63;;;20.95;78.24
12636;BME280;6383;50.830;7.210;2022-07-22T21:37:01;100976.81;;;21.35;75.95
12636;BME280;6383;50.830;7.210;2022-07-22T21:39:31;100978.34;;;21.71;74.80
12636;BME280;6383;50.830;7.210;2022-07-22T21:42:00;100967.00;;;21.99;73.59
12636;BME280;6383;50.830;7.210;2022-07-22T21:44:29;100966.31;;;22.25;71.87
12636;BME280;6383;50.830;7.210;2022-07-22T21:46:58;100961.13;;;22.46;70.20
12636;BME280;6383;50.830;7.210;2022-07-22T21:49:28;100961.41;;;22.64;69.44
12636;BME280;6383;50.830;7.210;2022-07-22T21:51:58;100950.56;;;22.78;68.85
12636;BME280;6383;50.830;7.210;2022-07-22T21:54:27;100946.75;;;22.90;68.20
12636;BME280;6383;50.830;7.210;2022-07-22T21:56:56;100957.25;;;23.00;67.83
12636;BME280;6383;50.830;7.210;2022-07-22T21:59:26;100968.44;;;23.07;66.38
12636;BME280;6383;50.830;7.210;2022-07-22T22:01:57;100958.59;;;23.13;66.19
12636;BME280;6383;50.830;7.210;2022-07-22T22:04:28;100966.16;;;23.16;66.06
12636;BME280;6383;50.830;7.210;2022-07-22T22:07:00;100968.25;;;23.23;65.63
12636;BME280;6383;50.830;7.210;2022-07-22T22:09:29;100967.13;;;23.27;64.56
12636;BME280;6383;50.830;7.210;2022-07-22T22:11:59;100966.34;;;23.30;66.61
12636;BME280;6383;50.830;7.210;2022-07-22T22:14:28;100969.56;;;23.32;65.48
12636;BME280;6383;50.830;7.210;2022-07-22T22:16:58;100966.03;;;23.35;64.50
12636;BME280;6383;50.830;7.210;2022-07-22T22:19:32;100966.47;;;23.37;64.96
12636;BME280;6383;50.830;7.210;2022-07-22T22:22:01;100962.50;;;23.38;63.90
12636;BME280;6383;50.830;7.210;2022-07-22T22:24:31;100951.41;;;23.38;64.11
12636;BME280;6383;50.830;7.210;2022-07-22T22:27:00;100953.81;;;23.40;64.15
12636;BME280;6383;50.830;7.210;2022-07-22T22:29:29;100957.00;;;23.42;63.84
12636;BME280;6383;50.830;7.210;2022-07-22T22:31:58;100960.59;;;23.42;63.78
12636;BME280;6383;50.830;7.210;2022-07-22T22:34:27;100971.69;;;23.42;62.69
12636;BME280;6383;50.830;7.210;2022-07-22T22:36:58;100984.78;;;23.42;62.51
12636;BME280;6383;50.830;7.210;2022-07-22T22:39:27;100988.75;;;23.41;61.67
12636;BME280;6383;50.830;7.210;2022-07-22T22:41:56;100982.38;;;23.40;61.18
12636;BME280;6383;50.830;7.210;2022-07-22T22:44:25;100992.69;;;23.40;60.94
12636;BME280;6383;50.830;7.210;2022-07-22T22:46:54;101004.97;;;23.39;60.88
12636;BME280;6383;50.830;7.210;2022-07-22T22:49:24;101011.72;;;23.38;61.47
12636;BME280;6383;50.830;7.210;2022-07-22T22:51:53;101023.63;;;23.38;61.81
12636;BME280;6383;50.830;7.210;2022-07-22T22:54:23;101025.59;;;23.38;61.46
12636;BME280;6383;50.830;7.210;2022-07-22T22:56:55;101028.38;;;23.38;60.82
12636;BME280;6383;50.830;7.210;2022-07-22T22:59:24;101025.97;;;23.36;60.76
12636;BME280;6383;50.830;7.210;2022-07-22T23:01:53;101022.41;;;23.36;60.03
12636;BME280;6383;50.830;7.210;2022-07-22T23:04:22;101021.97;;;23.34;60.01
12636;BME280;6383;50.830;7.210;2022-07-22T23:06:51;101010.03;;;23.33;59.87
12636;BME280;6383;50.830;7.210;2022-07-22T23:09:21;100995.34;;;23.29;60.50
12636;BME280;6383;50.830;7.210;2022-07-22T23:11:51;100994.09;;;23.27;61.43
12636;BME280;6383;50.830;7.210;2022-07-22T23:14:20;100987.75;;;23.26;60.96
12636;BME280;6383;50.830;7.210;2022-07-22T23:16:50;100991.31;;;23.27;59.80
12636;BME280;6383;50.830;7.210;2022-07-22T23:19:19;101002.81;;;23.25;60.27
12636;BME280;6383;50.830;7.210;2022-07-22T23:21:48;101009.97;;;23.26;59.88
12636;BME280;6383;50.830;7.210;2022-07-22T23:24:17;101014.72;;;23.26;60.63
12636;BME280;6383;50.830;7.210;2022-07-22T23:26:46;101008.78;;;23.27;59.63
12636;BME280;6383;50.830;7.210;2022-07-22T23:29:17;101004.41;;;23.26;59.32
12636;BME280;6383;50.830;7.210;2022-07-22T23:31:46;101021.50;;;23.28;59.94
12636;BME280;6383;50.830;7.210;2022-07-22T23:34:15;101019.91;;;23.27;60.83
12636;BME280;6383;50.830;7.210;2022-07-22T23:36:44;101014.34;;;23.27;59.42
12636;BME280;6383;50.830;7.210;2022-07-22T23:39:13;101013.97;;;23.29;60.29
12636;BME280;6383;50.830;7.210;2022-07-22T23:41:43;101015.56;;;23.30;60.15
12636;BME280;6383;50.830;7.210;2022-07-22T23:44:12;101004.47;;;23.30;59.44
12636;BME280;6383;50.830;7.210;2022-07-22T23:46:42;100985.81;;;23.30;59.78
12636;BME280;6383;50.830;7.210;2022-07-22T23:49:11;100973.50;;;23.31;59.23
12636;BME280;6383;50.830;7.210;2022-07-22T23:51:40;100969.53;;;23.29;59.48
12636;BME280;6383;50.830;7.210;2022-07-22T23:54:10;100972.69;;;23.27;59.54
12636;BME280;6383;50.830;7.210;2022-07-22T23:56:39;100981.03;;;23.27;60.26
12636;BME280;6383;50.830;7.210;2022-07-22T23:59:08;100983.00;;;23.27;60.84
